sensor_id;sensor_type;location;lat;lon;timestamp;P1;durP1;ratioP1;P2;durP2;ratioP2
66603;SDS011;53460;39.612;8.822;2022-11-30T00:00:32;4.88;;;2.53;;
66603;SDS011;53460;39.612;8.822;2022-11-30T00:02:58;3.50;;;2.00;;
66603;SDS011;53460;39.612;8.822;2022-11-30T00:05:23;6.78;;;2.08;;
66603;SDS011;53460;39.612;8.822;2022-11-30T00:07:49;2.40;;;1.70;;
66603;SDS011;53460;39.612;8.822;2022-11-30T00:10:14;3.10;;;2.13;;
66603;SDS011;53460;39.612;8.822;2022-11-30T00:12:40;6.60;;;2.15;;
66603;SDS011;53460;39.612;8.822;2022-11-30T00:15:09;4.15;;;2.90;;
66603;SDS011;53460;39.612;8.822;2022-11-30T00:17:38;4.65;;;3.08;;
66603;SDS011;53460;39.612;8.822;2022-11-30T00:20:03;4.10;;;2.40;;
66603;SDS011;53460;39.612;8.822;2022-11-30T00:22:29;5.80;;;2.50;;
66603;SDS011;53460;39.612;8.822;2022-11-30T00:24:55;8.55;;;3.92;;
66603;SDS011;53460;39.612;8.822;2022-11-30T00:27:23;5.38;;;3.03;;
66603;SDS011;53460;39.612;8.822;2022-11-30T00:29:49;4.32;;;3.42;;
66603;SDS011;53460;39.612;8.822;2022-11-30T00:32:14;4.93;;;3.20;;
66603;SDS011;53460;39.612;8.822;2022-11-30T00:34:40;4.57;;;3.28;;
66603;SDS011;53460;39.612;8.822;2022-11-30T00:37:05;4.38;;;2.67;;
66603;SDS011;53460;39.612;8.822;2022-11-30T00:39:31;3.95;;;2.70;;
66603;SDS011;53460;39.612;8.822;2022-11-30T00:41:56;4.28;;;2.50;;
66603;SDS011;53460;39.612;8.822;2022-11-30T00:44:22;3.63;;;2.53;;
66603;SDS011;53460;39.612;8.822;2022-11-30T00:46:47;4.90;;;2.83;;
66603;SDS011;53460;39.612;8.822;2022-11-30T00:49:12;5.65;;;2.85;;
66603;SDS011;53460;39.612;8.822;2022-11-30T00:51:38;3.50;;;2.72;;
66603;SDS011;53460;39.612;8.822;2022-11-30T00:54:03;5.30;;;2.70;;
66603;SDS011;53460;39.612;8.822;2022-11-30T00:56:29;4.43;;;3.50;;
66603;SDS011;53460;39.612;8.822;2022-11-30T00:58:55;3.78;;;2.78;;
66603;SDS011;53460;39.612;8.822;2022-11-30T01:01:20;4.82;;;3.05;;
66603;SDS011;53460;39.612;8.822;2022-11-30T01:03:45;3.03;;;2.58;;
66603;SDS011;53460;39.612;8.822;2022-11-30T01:06:11;3.67;;;2.38;;
66603;SDS011;53460;39.612;8.822;2022-11-30T01:08:37;3.28;;;2.40;;
66603;SDS011;53460;39.612;8.822;2022-11-30T01:11:14;5.35;;;2.33;;
66603;SDS011;53460;39.612;8.822;2022-11-30T01:13:40;5.53;;;2.20;;
66603;SDS011;53460;39.612;8.822;2022-11-30T01:16:10;3.92;;;1.92;;
66603;SDS011;53460;39.612;8.822;2022-11-30T01:18:36;4.78;;;2.15;;
66603;SDS011;53460;39.612;8.822;2022-11-30T01:21:06;2.65;;;1.75;;
66603;SDS011;53460;39.612;8.822;2022-11-30T01:23:31;1.75;;;1.65;;
66603;SDS011;53460;39.612;8.822;2022-11-30T01:25:57;2.97;;;1.83;;
66603;SDS011;53460;39.612;8.822;2022-11-30T01:28:22;4.78;;;1.80;;
66603;SDS011;53460;39.612;8.822;2022-11-30T01:30:57;2.05;;;1.70;;
66603;SDS011;53460;39.612;8.822;2022-11-30T01:33:23;4.93;;;2.10;;
66603;SDS011;53460;39.612;8.822;2022-11-30T01:35:56;3.90;;;2.25;;
66603;SDS011;53460;39.612;8.822;2022-11-30T01:40:48;4.03;;;2.83;;
66603;SDS011;53460;39.612;8.822;2022-11-30T01:43:14;4.85;;;3.03;;
66603;SDS011;53460;39.612;8.822;2022-11-30T01:45:40;4.18;;;2.85;;
66603;SDS011;53460;39.612;8.822;2022-11-30T01:48:06;3.53;;;2.25;;
66603;SDS011;53460;39.612;8.822;2022-11-30T01:50:33;3.33;;;1.92;;
66603;SDS011;53460;39.612;8.822;2022-11-30T01:52:59;3.45;;;1.70;;
66603;SDS011;53460;39.612;8.822;2022-11-30T01:55:27;3.53;;;1.77;;
66603;SDS011;53460;39.612;8.822;2022-11-30T01:57:58;6.07;;;2.00;;
66603;SDS011;53460;39.612;8.822;2022-11-30T02:00:25;1.88;;;1.60;;
66603;SDS011;53460;39.612;8.822;2022-11-30T02:05:29;2.95;;;2.00;;
66603;SDS011;53460;39.612;8.822;2022-11-30T02:07:55;5.13;;;1.70;;
66603;SDS011;53460;39.612;8.822;2022-11-30T02:10:24;3.67;;;2.13;;
66603;SDS011;53460;39.612;8.822;2022-11-30T02:12:58;2.00;;;1.80;;
66603;SDS011;53460;39.612;8.822;2022-11-30T02:15:30;2.28;;;1.20;;
66603;SDS011;53460;39.612;8.822;2022-11-30T02:18:06;4.60;;;1.30;;
66603;SDS011;53460;39.612;8.822;2022-11-30T02:26:04;2.42;;;1.38;;
66603;SDS011;53460;39.612;8.822;2022-11-30T02:31:07;4.72;;;1.10;;
66603;SDS011;53460;39.612;8.822;2022-11-30T02:33:35;2.30;;;1.20;;
66603;SDS011;53460;39.612;8.822;2022-11-30T02:36:02;3.63;;;1.40;;
66603;SDS011;53460;39.612;8.822;2022-11-30T02:38:30;4.57;;;1.17;;
66603;SDS011;53460;39.612;8.822;2022-11-30T02:40:56;2.28;;;1.13;;
66603;SDS011;53460;39.612;8.822;2022-11-30T02:43:22;1.58;;;0.80;;
66603;SDS011;53460;39.612;8.822;2022-11-30T02:46:00;4.45;;;1.15;;
66603;SDS011;53460;39.612;8.822;2022-11-30T02:48:31;2.75;;;1.00;;
66603;SDS011;53460;39.612;8.822;2022-11-30T02:51:00;2.72;;;1.58;;
66603;SDS011;53460;39.612;8.822;2022-11-30T02:53:26;0.95;;;0.63;;
66603;SDS011;53460;39.612;8.822;2022-11-30T02:55:52;2.67;;;1.10;;
66603;SDS011;53460;39.612;8.822;2022-11-30T02:58:18;2.05;;;0.82;;
66603;SDS011;53460;39.612;8.822;2022-11-30T03:00:43;1.27;;;1.05;;
66603;SDS011;53460;39.612;8.822;2022-11-30T03:03:09;1.13;;;1.00;;
66603;SDS011;53460;39.612;8.822;2022-11-30T03:05:35;2.42;;;0.98;;
66603;SDS011;53460;39.612;8.822;2022-11-30T03:08:00;0.98;;;0.82;;
66603;SDS011;53460;39.612;8.822;2022-11-30T03:10:26;1.83;;;0.98;;
66603;SDS011;53460;39.612;8.822;2022-11-30T03:12:51;1.40;;;1.00;;
66603;SDS011;53460;39.612;8.822;2022-11-30T03:15:17;2.88;;;1.17;;
66603;SDS011;53460;39.612;8.822;2022-11-30T03:17:42;2.42;;;1.00;;
66603;SDS011;53460;39.612;8.822;2022-11-30T03:20:08;2.20;;;1.25;;
66603;SDS011;53460;39.612;8.822;2022-11-30T03:22:34;1.30;;;0.90;;
66603;SDS011;53460;39.612;8.822;2022-11-30T03:24:59;1.23;;;1.05;;
66603;SDS011;53460;39.612;8.822;2022-11-30T03:27:25;2.10;;;1.17;;
66603;SDS011;53460;39.612;8.822;2022-11-30T03:29:50;1.85;;;1.30;;
66603;SDS011;53460;39.612;8.822;2022-11-30T03:32:16;1.95;;;1.15;;
66603;SDS011;53460;39.612;8.822;2022-11-30T03:34:42;2.05;;;1.40;;
66603;SDS011;53460;39.612;8.822;2022-11-30T03:37:07;2.53;;;1.30;;
66603;SDS011;53460;39.612;8.822;2022-11-30T03:39:33;4.65;;;1.35;;
66603;SDS011;53460;39.612;8.822;2022-11-30T03:41:58;6.65;;;1.50;;
66603;SDS011;53460;39.612;8.822;2022-11-30T03:44:24;2.58;;;1.88;;
66603;SDS011;53460;39.612;8.822;2022-11-30T03:46:49;1.95;;;1.33;;
66603;SDS011;53460;39.612;8.822;2022-11-30T03:49:15;1.50;;;1.38;;
66603;SDS011;53460;39.612;8.822;2022-11-30T03:51:40;1.27;;;1.17;;
66603;SDS011;53460;39.612;8.822;2022-11-30T03:54:06;1.52;;;1.35;;
66603;SDS011;53460;39.612;8.822;2022-11-30T03:56:31;1.95;;;1.40;;
66603;SDS011;53460;39.612;8.822;2022-11-30T03:58:57;2.88;;;1.33;;
66603;SDS011;53460;39.612;8.822;2022-11-30T04:01:22;2.50;;;1.65;;
66603;SDS011;53460;39.612;8.822;2022-11-30T04:03:48;2.00;;;1.77;;
66603;SDS011;53460;39.612;8.822;2022-11-30T04:06:14;4.05;;;1.90;;
66603;SDS011;53460;39.612;8.822;2022-11-30T04:08:40;2.83;;;1.95;;
66603;SDS011;53460;39.612;8.822;2022-11-30T04:11:06;4.88;;;2.03;;
66603;SDS011;53460;39.612;8.822;2022-11-30T04:13:32;3.53;;;1.90;;
66603;SDS011;53460;39.612;8.822;2022-11-30T04:15:59;3.22;;;1.63;;
66603;SDS011;53460;39.612;8.822;2022-11-30T04:18:25;3.55;;;1.90;;
66603;SDS011;53460;39.612;8.822;2022-11-30T04:20:51;1.50;;;1.40;;
66603;SDS011;53460;39.612;8.822;2022-11-30T04:23:17;2.45;;;1.42;;
66603;SDS011;53460;39.612;8.822;2022-11-30T04:25:42;1.60;;;1.50;;
66603;SDS011;53460;39.612;8.822;2022-11-30T04:28:08;4.00;;;1.70;;
66603;SDS011;53460;39.612;8.822;2022-11-30T04:30:34;2.63;;;1.23;;
66603;SDS011;53460;39.612;8.822;2022-11-30T04:33:00;2.50;;;1.50;;
66603;SDS011;53460;39.612;8.822;2022-11-30T04:35:26;2.65;;;1.70;;
66603;SDS011;53460;39.612;8.822;2022-11-30T04:37:52;1.60;;;1.50;;
66603;SDS011;53460;39.612;8.822;2022-11-30T04:40:17;2.20;;;1.92;;
66603;SDS011;53460;39.612;8.822;2022-11-30T04:42:43;1.92;;;1.73;;
66603;SDS011;53460;39.612;8.822;2022-11-30T04:45:08;1.75;;;1.50;;
66603;SDS011;53460;39.612;8.822;2022-11-30T04:47:34;2.47;;;1.70;;
66603;SDS011;53460;39.612;8.822;2022-11-30T04:50:00;1.38;;;1.27;;
66603;SDS011;53460;39.612;8.822;2022-11-30T04:52:25;1.88;;;1.55;;
66603;SDS011;53460;39.612;8.822;2022-11-30T04:54:51;1.70;;;1.60;;
66603;SDS011;53460;39.612;8.822;2022-11-30T04:57:17;1.95;;;1.75;;
66603;SDS011;53460;39.612;8.822;2022-11-30T04:59:43;3.75;;;1.67;;
66603;SDS011;53460;39.612;8.822;2022-11-30T05:02:08;2.80;;;1.20;;
66603;SDS011;53460;39.612;8.822;2022-11-30T05:04:34;2.58;;;1.58;;
66603;SDS011;53460;39.612;8.822;2022-11-30T05:07:00;3.05;;;1.58;;
66603;SDS011;53460;39.612;8.822;2022-11-30T05:09:25;1.30;;;1.20;;
66603;SDS011;53460;39.612;8.822;2022-11-30T05:11:51;1.40;;;1.30;;
66603;SDS011;53460;39.612;8.822;2022-11-30T05:14:16;1.63;;;1.13;;
66603;SDS011;53460;39.612;8.822;2022-11-30T05:16:42;3.05;;;1.05;;
66603;SDS011;53460;39.612;8.822;2022-11-30T05:19:07;2.30;;;0.95;;
66603;SDS011;53460;39.612;8.822;2022-11-30T05:21:33;0.93;;;0.82;;
66603;SDS011;53460;39.612;8.822;2022-11-30T05:23:59;1.25;;;0.80;;
66603;SDS011;53460;39.612;8.822;2022-11-30T05:26:24;1.65;;;0.90;;
66603;SDS011;53460;39.612;8.822;2022-11-30T05:28:50;0.77;;;0.77;;
66603;SDS011;53460;39.612;8.822;2022-11-30T05:31:15;1.40;;;0.85;;
66603;SDS011;53460;39.612;8.822;2022-11-30T05:33:41;1.90;;;0.98;;
66603;SDS011;53460;39.612;8.822;2022-11-30T05:36:06;4.05;;;1.40;;
66603;SDS011;53460;39.612;8.822;2022-11-30T05:38:32;1.92;;;1.20;;
66603;SDS011;53460;39.612;8.822;2022-11-30T05:40:58;1.85;;;1.20;;
66603;SDS011;53460;39.612;8.822;2022-11-30T05:43:24;0.90;;;0.80;;
66603;SDS011;53460;39.612;8.822;2022-11-30T05:45:50;2.63;;;1.30;;
66603;SDS011;53460;39.612;8.822;2022-11-30T05:48:15;1.40;;;1.30;;
66603;SDS011;53460;39.612;8.822;2022-11-30T05:50:40;3.05;;;1.40;;
66603;SDS011;53460;39.612;8.822;2022-11-30T05:53:06;2.20;;;1.90;;
66603;SDS011;53460;39.612;8.822;2022-11-30T05:55:32;2.35;;;1.77;;
66603;SDS011;53460;39.612;8.822;2022-11-30T05:57:57;4.68;;;1.85;;
66603;SDS011;53460;39.612;8.822;2022-11-30T06:00:23;6.90;;;4.70;;
66603;SDS011;53460;39.612;8.822;2022-11-30T06:02:53;2.55;;;1.35;;
66603;SDS011;53460;39.612;8.822;2022-11-30T06:05:18;2.45;;;1.10;;
66603;SDS011;53460;39.612;8.822;2022-11-30T06:07:44;1.50;;;1.38;;
66603;SDS011;53460;39.612;8.822;2022-11-30T06:10:10;3.58;;;2.35;;
66603;SDS011;53460;39.612;8.822;2022-11-30T06:12:35;1.77;;;1.42;;
66603;SDS011;53460;39.612;8.822;2022-11-30T06:15:01;3.33;;;1.80;;
66603;SDS011;53460;39.612;8.822;2022-11-30T06:17:26;3.03;;;2.35;;
66603;SDS011;53460;39.612;8.822;2022-11-30T06:19:52;3.20;;;2.90;;
66603;SDS011;53460;39.612;8.822;2022-11-30T06:22:17;13.10;;;9.35;;
66603;SDS011;53460;39.612;8.822;2022-11-30T06:24:43;14.02;;;11.50;;
66603;SDS011;53460;39.612;8.822;2022-11-30T06:27:08;20.00;;;14.57;;
66603;SDS011;53460;39.612;8.822;2022-11-30T06:29:34;13.18;;;9.02;;
66603;SDS011;53460;39.612;8.822;2022-11-30T06:31:59;13.65;;;12.15;;
66603;SDS011;53460;39.612;8.822;2022-11-30T06:34:24;14.48;;;11.77;;
66603;SDS011;53460;39.612;8.822;2022-11-30T06:36:50;5.53;;;3.65;;
66603;SDS011;53460;39.612;8.822;2022-11-30T06:39:16;6.32;;;5.10;;
66603;SDS011;53460;39.612;8.822;2022-11-30T06:41:41;4.70;;;2.42;;
66603;SDS011;53460;39.612;8.822;2022-11-30T06:44:07;6.68;;;5.65;;
66603;SDS011;53460;39.612;8.822;2022-11-30T06:46:33;3.25;;;2.13;;
66603;SDS011;53460;39.612;8.822;2022-11-30T06:48:58;2.33;;;2.13;;
66603;SDS011;53460;39.612;8.822;2022-11-30T06:51:24;3.60;;;2.33;;
66603;SDS011;53460;39.612;8.822;2022-11-30T06:53:49;4.20;;;2.50;;
66603;SDS011;53460;39.612;8.822;2022-11-30T06:56:15;3.28;;;2.38;;
66603;SDS011;53460;39.612;8.822;2022-11-30T06:58:40;4.85;;;3.30;;
66603;SDS011;53460;39.612;8.822;2022-11-30T07:01:06;6.32;;;4.20;;
66603;SDS011;53460;39.612;8.822;2022-11-30T07:03:32;3.95;;;3.13;;
66603;SDS011;53460;39.612;8.822;2022-11-30T07:05:58;4.15;;;3.00;;
66603;SDS011;53460;39.612;8.822;2022-11-30T07:08:23;4.07;;;2.83;;
66603;SDS011;53460;39.612;8.822;2022-11-30T07:10:49;3.65;;;2.97;;
66603;SDS011;53460;39.612;8.822;2022-11-30T07:13:15;3.70;;;3.40;;
66603;SDS011;53460;39.612;8.822;2022-11-30T07:15:41;6.40;;;3.45;;
66603;SDS011;53460;39.612;8.822;2022-11-30T07:18:07;3.85;;;3.22;;
66603;SDS011;53460;39.612;8.822;2022-11-30T07:20:33;2.63;;;2.42;;
66603;SDS011;53460;39.612;8.822;2022-11-30T07:22:59;6.07;;;4.40;;
66603;SDS011;53460;39.612;8.822;2022-11-30T07:25:45;7.28;;;5.10;;
66603;SDS011;53460;39.612;8.822;2022-11-30T07:28:29;6.22;;;4.00;;
66603;SDS011;53460;39.612;8.822;2022-11-30T07:30:54;5.30;;;3.65;;
66603;SDS011;53460;39.612;8.822;2022-11-30T07:33:20;10.18;;;4.03;;
66603;SDS011;53460;39.612;8.822;2022-11-30T07:35:45;4.85;;;4.38;;
66603;SDS011;53460;39.612;8.822;2022-11-30T07:38:11;6.38;;;4.53;;
66603;SDS011;53460;39.612;8.822;2022-11-30T07:40:36;20.25;;;15.73;;
66603;SDS011;53460;39.612;8.822;2022-11-30T07:43:02;37.83;;;26.08;;
66603;SDS011;53460;39.612;8.822;2022-11-30T07:45:27;12.02;;;9.85;;
66603;SDS011;53460;39.612;8.822;2022-11-30T07:47:53;5.45;;;4.22;;
66603;SDS011;53460;39.612;8.822;2022-11-30T07:50:18;5.57;;;3.50;;
66603;SDS011;53460;39.612;8.822;2022-11-30T07:52:44;2.50;;;2.03;;
66603;SDS011;53460;39.612;8.822;2022-11-30T07:55:09;2.50;;;1.95;;
66603;SDS011;53460;39.612;8.822;2022-11-30T07:57:35;3.10;;;2.38;;
66603;SDS011;53460;39.612;8.822;2022-11-30T08:00:00;3.03;;;2.67;;
66603;SDS011;53460;39.612;8.822;2022-11-30T08:02:26;4.38;;;2.28;;
66603;SDS011;53460;39.612;8.822;2022-11-30T08:04:51;2.60;;;2.40;;
66603;SDS011;53460;39.612;8.822;2022-11-30T08:07:17;2.92;;;2.63;;
66603;SDS011;53460;39.612;8.822;2022-11-30T08:09:42;4.75;;;2.78;;
66603;SDS011;53460;39.612;8.822;2022-11-30T08:12:09;4.32;;;2.80;;
66603;SDS011;53460;39.612;8.822;2022-11-30T08:14:34;6.00;;;3.53;;
66603;SDS011;53460;39.612;8.822;2022-11-30T08:17:00;7.30;;;4.78;;
66603;SDS011;53460;39.612;8.822;2022-11-30T08:19:25;7.93;;;5.45;;
66603;SDS011;53460;39.612;8.822;2022-11-30T08:21:51;7.50;;;4.88;;
66603;SDS011;53460;39.612;8.822;2022-11-30T08:24:16;9.48;;;8.23;;
66603;SDS011;53460;39.612;8.822;2022-11-30T08:26:42;4.38;;;3.28;;
66603;SDS011;53460;39.612;8.822;2022-11-30T08:29:07;2.88;;;2.20;;
66603;SDS011;53460;39.612;8.822;2022-11-30T08:31:34;3.80;;;2.30;;
66603;SDS011;53460;39.612;8.822;2022-11-30T08:34:04;5.28;;;2.13;;
66603;SDS011;53460;39.612;8.822;2022-11-30T08:36:30;2.85;;;2.00;;
66603;SDS011;53460;39.612;8.822;2022-11-30T08:38:56;3.78;;;2.33;;
66603;SDS011;53460;39.612;8.822;2022-11-30T08:41:22;3.30;;;3.00;;
66603;SDS011;53460;39.612;8.822;2022-11-30T08:43:48;4.63;;;3.03;;
66603;SDS011;53460;39.612;8.822;2022-11-30T08:46:14;3.45;;;3.15;;
66603;SDS011;53460;39.612;8.822;2022-11-30T08:48:40;3.35;;;3.03;;
66603;SDS011;53460;39.612;8.822;2022-11-30T08:51:06;3.75;;;3.05;;
66603;SDS011;53460;39.612;8.822;2022-11-30T08:53:34;4.50;;;3.13;;
66603;SDS011;53460;39.612;8.822;2022-11-30T08:56:00;3.70;;;3.13;;
66603;SDS011;53460;39.612;8.822;2022-11-30T08:58:28;4.35;;;2.80;;
66603;SDS011;53460;39.612;8.822;2022-11-30T09:00:53;8.10;;;3.25;;
66603;SDS011;53460;39.612;8.822;2022-11-30T09:03:19;4.55;;;3.08;;
66603;SDS011;53460;39.612;8.822;2022-11-30T09:05:44;3.42;;;2.88;;
66603;SDS011;53460;39.612;8.822;2022-11-30T09:08:10;6.88;;;2.92;;
66603;SDS011;53460;39.612;8.822;2022-11-30T09:10:36;8.88;;;3.17;;
66603;SDS011;53460;39.612;8.822;2022-11-30T09:13:01;5.57;;;3.00;;
66603;SDS011;53460;39.612;8.822;2022-11-30T09:15:27;3.85;;;2.95;;
66603;SDS011;53460;39.612;8.822;2022-11-30T09:17:52;3.40;;;2.72;;
66603;SDS011;53460;39.612;8.822;2022-11-30T09:20:18;4.53;;;2.72;;
66603;SDS011;53460;39.612;8.822;2022-11-30T09:22:43;4.85;;;3.28;;
66603;SDS011;53460;39.612;8.822;2022-11-30T09:25:09;4.10;;;3.17;;
66603;SDS011;53460;39.612;8.822;2022-11-30T09:27:34;3.60;;;3.30;;
66603;SDS011;53460;39.612;8.822;2022-11-30T09:30:00;3.17;;;2.88;;
66603;SDS011;53460;39.612;8.822;2022-11-30T09:32:26;4.18;;;3.25;;
66603;SDS011;53460;39.612;8.822;2022-11-30T09:34:52;4.18;;;2.95;;
66603;SDS011;53460;39.612;8.822;2022-11-30T09:37:17;3.75;;;2.70;;
66603;SDS011;53460;39.612;8.822;2022-11-30T09:39:43;3.70;;;2.88;;
66603;SDS011;53460;39.612;8.822;2022-11-30T09:42:20;4.20;;;2.90;;
66603;SDS011;53460;39.612;8.822;2022-11-30T09:47:38;4.30;;;3.33;;
66603;SDS011;53460;39.612;8.822;2022-11-30T09:50:15;3.70;;;2.78;;
66603;SDS011;53460;39.612;8.822;2022-11-30T09:52:43;6.32;;;3.28;;
66603;SDS011;53460;39.612;8.822;2022-11-30T09:55:11;4.45;;;2.80;;
66603;SDS011;53460;39.612;8.822;2022-11-30T10:00:24;4.65;;;3.85;;
66603;SDS011;53460;39.612;8.822;2022-11-30T10:02:51;4.82;;;2.95;;
66603;SDS011;53460;39.612;8.822;2022-11-30T10:13:21;6.05;;;4.25;;
66603;SDS011;53460;39.612;8.822;2022-11-30T10:26:25;3.60;;;2.90;;
66603;SDS011;53460;39.612;8.822;2022-11-30T10:28:54;3.28;;;2.78;;
66603;SDS011;53460;39.612;8.822;2022-11-30T10:31:28;4.25;;;2.95;;
66603;SDS011;53460;39.612;8.822;2022-11-30T10:33:55;4.03;;;2.80;;
66603;SDS011;53460;39.612;8.822;2022-11-30T10:36:32;5.53;;;2.90;;
66603;SDS011;53460;39.612;8.822;2022-11-30T10:38:58;4.65;;;2.70;;
66603;SDS011;53460;39.612;8.822;2022-11-30T10:41:30;5.13;;;3.40;;
66603;SDS011;53460;39.612;8.822;2022-11-30T10:43:58;4.70;;;3.17;;
66603;SDS011;53460;39.612;8.822;2022-11-30T10:47:09;2.38;;;2.17;;
66603;SDS011;53460;39.612;8.822;2022-11-30T10:49:14;3.50;;;2.90;;
66603;SDS011;53460;39.612;8.822;2022-11-30T10:51:41;2.95;;;2.30;;
66603;SDS011;53460;39.612;8.822;2022-11-30T10:54:14;6.88;;;5.40;;
66603;SDS011;53460;39.612;8.822;2022-11-30T10:56:40;7.25;;;4.93;;
66603;SDS011;53460;39.612;8.822;2022-11-30T10:59:08;4.43;;;2.70;;
66603;SDS011;53460;39.612;8.822;2022-11-30T11:01:36;6.05;;;2.90;;
66603;SDS011;53460;39.612;8.822;2022-11-30T11:06:34;3.80;;;2.33;;
66603;SDS011;53460;39.612;8.822;2022-11-30T11:11:44;2.97;;;2.10;;
66603;SDS011;53460;39.612;8.822;2022-11-30T11:14:17;3.53;;;3.22;;
66603;SDS011;53460;39.612;8.822;2022-11-30T11:17:03;3.53;;;2.67;;
66603;SDS011;53460;39.612;8.822;2022-11-30T11:22:04;2.77;;;2.53;;
66603;SDS011;53460;39.612;8.822;2022-11-30T11:24:30;2.80;;;2.10;;
66603;SDS011;53460;39.612;8.822;2022-11-30T11:26:56;2.45;;;2.25;;
66603;SDS011;53460;39.612;8.822;2022-11-30T11:29:23;3.90;;;2.70;;
66603;SDS011;53460;39.612;8.822;2022-11-30T11:32:05;4.07;;;2.83;;
66603;SDS011;53460;39.612;8.822;2022-11-30T11:34:32;3.67;;;2.70;;
66603;SDS011;53460;39.612;8.822;2022-11-30T11:37:03;2.97;;;2.67;;
66603;SDS011;53460;39.612;8.822;2022-11-30T11:39:28;2.58;;;2.00;;
66603;SDS011;53460;39.612;8.822;2022-11-30T11:41:54;3.72;;;2.22;;
66603;SDS011;53460;39.612;8.822;2022-11-30T11:44:21;6.22;;;2.75;;
66603;SDS011;53460;39.612;8.822;2022-11-30T11:46:54;2.88;;;2.60;;
66603;SDS011;53460;39.612;8.822;2022-11-30T11:52:03;2.58;;;2.33;;
66603;SDS011;53460;39.612;8.822;2022-11-30T11:54:33;4.63;;;2.90;;
66603;SDS011;53460;39.612;8.822;2022-11-30T11:56:59;2.50;;;2.20;;
66603;SDS011;53460;39.612;8.822;2022-11-30T12:06:51;2.72;;;2.00;;
66603;SDS011;53460;39.612;8.822;2022-11-30T12:09:20;7.28;;;3.45;;
66603;SDS011;53460;39.612;8.822;2022-11-30T12:11:47;3.38;;;2.30;;
66603;SDS011;53460;39.612;8.822;2022-11-30T12:14:13;3.17;;;2.30;;
66603;SDS011;53460;39.612;8.822;2022-11-30T12:16:57;2.50;;;2.30;;
66603;SDS011;53460;39.612;8.822;2022-11-30T12:26:52;3.63;;;2.17;;
66603;SDS011;53460;39.612;8.822;2022-11-30T12:31:58;2.70;;;2.03;;
66603;SDS011;53460;39.612;8.822;2022-11-30T12:37:06;2.85;;;2.03;;
66603;SDS011;53460;39.612;8.822;2022-11-30T12:39:43;4.65;;;2.60;;
66603;SDS011;53460;39.612;8.822;2022-11-30T12:58:21;3.00;;;2.70;;
66603;SDS011;53460;39.612;8.822;2022-11-30T13:01:38;2.65;;;1.98;;
66603;SDS011;53460;39.612;8.822;2022-11-30T13:03:45;2.60;;;2.22;;
66603;SDS011;53460;39.612;8.822;2022-11-30T13:06:14;3.55;;;2.33;;
66603;SDS011;53460;39.612;8.822;2022-11-30T13:09:43;3.40;;;3.10;;
66603;SDS011;53460;39.612;8.822;2022-11-30T13:11:37;2.83;;;2.63;;
66603;SDS011;53460;39.612;8.822;2022-11-30T13:14:03;3.33;;;2.25;;
66603;SDS011;53460;39.612;8.822;2022-11-30T13:16:30;2.20;;;2.00;;
66603;SDS011;53460;39.612;8.822;2022-11-30T13:19:00;2.42;;;1.85;;
66603;SDS011;53460;39.612;8.822;2022-11-30T13:21:29;2.67;;;1.95;;
66603;SDS011;53460;39.612;8.822;2022-11-30T13:26:41;3.83;;;2.47;;
66603;SDS011;53460;39.612;8.822;2022-11-30T13:32:04;2.13;;;1.92;;
66603;SDS011;53460;39.612;8.822;2022-11-30T13:34:31;3.85;;;2.45;;
66603;SDS011;53460;39.612;8.822;2022-11-30T13:39:25;3.92;;;2.15;;
66603;SDS011;53460;39.612;8.822;2022-11-30T13:44:35;3.80;;;2.35;;
66603;SDS011;53460;39.612;8.822;2022-11-30T13:47:13;2.28;;;2.08;;
66603;SDS011;53460;39.612;8.822;2022-11-30T13:49:40;3.20;;;2.67;;
66603;SDS011;53460;39.612;8.822;2022-11-30T13:52:08;2.75;;;1.98;;
66603;SDS011;53460;39.612;8.822;2022-11-30T13:57:02;4.22;;;2.42;;
66603;SDS011;53460;39.612;8.822;2022-11-30T13:59:34;3.67;;;2.42;;
66603;SDS011;53460;39.612;8.822;2022-11-30T14:04:49;3.97;;;2.47;;
66603;SDS011;53460;39.612;8.822;2022-11-30T14:07:33;2.95;;;2.45;;
66603;SDS011;53460;39.612;8.822;2022-11-30T14:09:59;3.15;;;2.50;;
66603;SDS011;53460;39.612;8.822;2022-11-30T14:15:01;6.07;;;2.30;;
66603;SDS011;53460;39.612;8.822;2022-11-30T14:17:46;5.35;;;2.08;;
66603;SDS011;53460;39.612;8.822;2022-11-30T14:20:15;3.67;;;1.90;;
66603;SDS011;53460;39.612;8.822;2022-11-30T14:22:43;1.75;;;1.63;;
66603;SDS011;53460;39.612;8.822;2022-11-30T14:25:12;2.70;;;1.77;;
66603;SDS011;53460;39.612;8.822;2022-11-30T14:27:38;3.85;;;2.30;;
66603;SDS011;53460;39.612;8.822;2022-11-30T14:30:04;2.38;;;2.03;;
66603;SDS011;53460;39.612;8.822;2022-11-30T14:32:32;3.38;;;2.45;;
66603;SDS011;53460;39.612;8.822;2022-11-30T14:35:05;4.20;;;2.90;;
66603;SDS011;53460;39.612;8.822;2022-11-30T14:40:02;4.13;;;2.47;;
66603;SDS011;53460;39.612;8.822;2022-11-30T14:42:28;3.88;;;2.67;;
66603;SDS011;53460;39.612;8.822;2022-11-30T14:44:54;4.70;;;2.55;;
66603;SDS011;53460;39.612;8.822;2022-11-30T14:47:22;3.25;;;2.22;;
66603;SDS011;53460;39.612;8.822;2022-11-30T14:49:49;4.53;;;3.50;;
66603;SDS011;53460;39.612;8.822;2022-11-30T14:57:51;8.07;;;3.00;;
66603;SDS011;53460;39.612;8.822;2022-11-30T15:00:19;7.50;;;2.38;;
66603;SDS011;53460;39.612;8.822;2022-11-30T15:02:45;4.40;;;2.42;;
66603;SDS011;53460;39.612;8.822;2022-11-30T15:05:21;3.63;;;2.78;;
66603;SDS011;53460;39.612;8.822;2022-11-30T15:07:48;5.65;;;3.88;;
66603;SDS011;53460;39.612;8.822;2022-11-30T15:10:15;6.80;;;4.50;;
66603;SDS011;53460;39.612;8.822;2022-11-30T15:12:42;5.85;;;5.20;;
66603;SDS011;53460;39.612;8.822;2022-11-30T15:15:13;6.88;;;4.85;;
66603;SDS011;53460;39.612;8.822;2022-11-30T15:17:50;4.30;;;3.70;;
66603;SDS011;53460;39.612;8.822;2022-11-30T15:20:17;4.25;;;3.70;;
66603;SDS011;53460;39.612;8.822;2022-11-30T15:22:43;12.27;;;4.63;;
66603;SDS011;53460;39.612;8.822;2022-11-30T15:25:12;8.65;;;4.78;;
66603;SDS011;53460;39.612;8.822;2022-11-30T15:27:37;4.65;;;3.65;;
66603;SDS011;53460;39.612;8.822;2022-11-30T15:30:03;3.97;;;3.45;;
66603;SDS011;53460;39.612;8.822;2022-11-30T15:32:29;3.78;;;3.35;;
66603;SDS011;53460;39.612;8.822;2022-11-30T15:34:55;5.68;;;3.13;;
66603;SDS011;53460;39.612;8.822;2022-11-30T15:37:34;5.05;;;4.30;;
66603;SDS011;53460;39.612;8.822;2022-11-30T15:40:03;6.32;;;4.05;;
66603;SDS011;53460;39.612;8.822;2022-11-30T15:42:31;4.82;;;3.92;;
66603;SDS011;53460;39.612;8.822;2022-11-30T15:45:13;6.75;;;3.92;;
66603;SDS011;53460;39.612;8.822;2022-11-30T15:47:39;7.22;;;4.30;;
66603;SDS011;53460;39.612;8.822;2022-11-30T15:50:30;4.90;;;3.90;;
66603;SDS011;53460;39.612;8.822;2022-11-30T15:52:56;4.75;;;4.05;;
66603;SDS011;53460;39.612;8.822;2022-11-30T15:55:39;6.10;;;5.50;;
66603;SDS011;53460;39.612;8.822;2022-11-30T15:58:04;7.65;;;6.90;;
66603;SDS011;53460;39.612;8.822;2022-11-30T16:00:30;11.57;;;5.47;;
66603;SDS011;53460;39.612;8.822;2022-11-30T16:03:08;6.57;;;5.15;;
66603;SDS011;53460;39.612;8.822;2022-11-30T16:05:34;16.48;;;12.25;;
66603;SDS011;53460;39.612;8.822;2022-11-30T16:08:01;14.15;;;10.88;;
66603;SDS011;53460;39.612;8.822;2022-11-30T16:10:29;7.07;;;5.88;;
66603;SDS011;53460;39.612;8.822;2022-11-30T16:12:56;6.70;;;6.10;;
66603;SDS011;53460;39.612;8.822;2022-11-30T16:15:23;10.70;;;8.57;;
66603;SDS011;53460;39.612;8.822;2022-11-30T16:17:59;13.18;;;11.50;;
66603;SDS011;53460;39.612;8.822;2022-11-30T16:20:28;5.90;;;5.30;;
66603;SDS011;53460;39.612;8.822;2022-11-30T16:22:53;5.97;;;4.70;;
66603;SDS011;53460;39.612;8.822;2022-11-30T16:25:21;7.90;;;5.13;;
66603;SDS011;53460;39.612;8.822;2022-11-30T16:27:47;8.20;;;6.93;;
66603;SDS011;53460;39.612;8.822;2022-11-30T16:30:13;9.02;;;8.13;;
66603;SDS011;53460;39.612;8.822;2022-11-30T16:32:39;8.88;;;6.70;;
66603;SDS011;53460;39.612;8.822;2022-11-30T16:35:28;7.88;;;7.15;;
66603;SDS011;53460;39.612;8.822;2022-11-30T16:37:50;7.22;;;6.53;;
66603;SDS011;53460;39.612;8.822;2022-11-30T16:40:16;6.82;;;6.13;;